sensor_id;sensor_type;location;lat;lon;timestamp;P1;durP1;ratioP1;P2;durP2;ratioP2
72584;SDS011;60618;40.084;32.908;2023-06-14T00:01:49;4.78;;;2.00;;
72584;SDS011;60618;40.084;32.908;2023-06-14T00:04:16;4.30;;;2.10;;
72584;SDS011;60618;40.084;32.908;2023-06-14T00:06:44;4.82;;;2.22;;
72584;SDS011;60618;40.084;32.908;2023-06-14T00:09:11;4.68;;;2.20;;
72584;SDS011;60618;40.084;32.908;2023-06-14T00:11:39;4.60;;;2.37;;
72584;SDS011;60618;40.084;32.908;2023-06-14T00:14:07;5.38;;;2.70;;
72584;SDS011;60618;40.084;32.908;2023-06-14T00:16:34;4.40;;;2.40;;
72584;SDS011;60618;40.084;32.908;2023-06-14T00:19:01;5.07;;;2.47;;
72584;SDS011;60618;40.084;32.908;2023-06-14T00:21:29;6.35;;;2.75;;
72584;SDS011;60618;40.084;32.908;2023-06-14T00:23:57;5.13;;;2.93;;
72584;SDS011;60618;40.084;32.908;2023-06-14T00:26:24;6.45;;;3.25;;
72584;SDS011;60618;40.084;32.908;2023-06-14T00:28:52;5.50;;;2.95;;
72584;SDS011;60618;40.084;32.908;2023-06-14T00:31:20;5.38;;;3.35;;
72584;SDS011;60618;40.084;32.908;2023-06-14T00:33:46;6.00;;;3.30;;
72584;SDS011;60618;40.084;32.908;2023-06-14T00:36:13;5.63;;;3.10;;
72584;SDS011;60618;40.084;32.908;2023-06-14T00:38:40;7.07;;;3.90;;
72584;SDS011;60618;40.084;32.908;2023-06-14T00:41:07;8.75;;;4.80;;
72584;SDS011;60618;40.084;32.908;2023-06-14T00:43:34;6.93;;;4.18;;
72584;SDS011;60618;40.084;32.908;2023-06-14T00:46:01;7.07;;;4.10;;
72584;SDS011;60618;40.084;32.908;2023-06-14T00:48:28;6.63;;;4.30;;
72584;SDS011;60618;40.084;32.908;2023-06-14T00:50:56;6.68;;;4.20;;
72584;SDS011;60618;40.084;32.908;2023-06-14T00:53:23;7.10;;;3.60;;
72584;SDS011;60618;40.084;32.908;2023-06-14T00:55:50;7.18;;;4.10;;
72584;SDS011;60618;40.084;32.908;2023-06-14T00:58:17;6.90;;;3.90;;
72584;SDS011;60618;40.084;32.908;2023-06-14T01:00:44;5.10;;;2.93;;
72584;SDS011;60618;40.084;32.908;2023-06-14T01:03:11;5.80;;;3.03;;
72584;SDS011;60618;40.084;32.908;2023-06-14T01:05:38;6.03;;;3.05;;
72584;SDS011;60618;40.084;32.908;2023-06-14T01:10:51;6.93;;;4.03;;
72584;SDS011;60618;40.084;32.908;2023-06-14T01:13:34;6.33;;;3.50;;
72584;SDS011;60618;40.084;32.908;2023-06-14T01:16:07;7.78;;;3.97;;
72584;SDS011;60618;40.084;32.908;2023-06-14T01:18:34;6.53;;;3.90;;
72584;SDS011;60618;40.084;32.908;2023-06-14T01:21:02;6.47;;;3.50;;
72584;SDS011;60618;40.084;32.908;2023-06-14T01:23:29;7.60;;;3.90;;
72584;SDS011;60618;40.084;32.908;2023-06-14T01:25:56;8.97;;;4.97;;
72584;SDS011;60618;40.084;32.908;2023-06-14T01:28:23;8.35;;;5.10;;
72584;SDS011;60618;40.084;32.908;2023-06-14T01:30:52;7.95;;;4.70;;
72584;SDS011;60618;40.084;32.908;2023-06-14T01:33:21;9.82;;;5.78;;
72584;SDS011;60618;40.084;32.908;2023-06-14T01:35:50;9.90;;;6.05;;
72584;SDS011;60618;40.084;32.908;2023-06-14T01:38:19;9.77;;;6.33;;
72584;SDS011;60618;40.084;32.908;2023-06-14T01:40:48;10.32;;;6.15;;
72584;SDS011;60618;40.084;32.908;2023-06-14T01:43:16;10.68;;;6.43;;
72584;SDS011;60618;40.084;32.908;2023-06-14T01:45:45;9.43;;;5.88;;
72584;SDS011;60618;40.084;32.908;2023-06-14T01:48:14;8.88;;;5.10;;
72584;SDS011;60618;40.084;32.908;2023-06-14T01:50:41;9.07;;;5.73;;
72584;SDS011;60618;40.084;32.908;2023-06-14T01:53:08;10.23;;;5.85;;
72584;SDS011;60618;40.084;32.908;2023-06-14T01:55:36;10.00;;;6.45;;
72584;SDS011;60618;40.084;32.908;2023-06-14T01:58:06;10.45;;;6.50;;
72584;SDS011;60618;40.084;32.908;2023-06-14T02:00:33;10.15;;;6.63;;
72584;SDS011;60618;40.084;32.908;2023-06-14T02:03:00;10.20;;;6.40;;
72584;SDS011;60618;40.084;32.908;2023-06-14T02:05:27;11.25;;;6.93;;
72584;SDS011;60618;40.084;32.908;2023-06-14T02:07:54;11.98;;;6.75;;
72584;SDS011;60618;40.084;32.908;2023-06-14T02:10:21;11.20;;;6.68;;
72584;SDS011;60618;40.084;32.908;2023-06-14T02:12:48;9.38;;;5.88;;
72584;SDS011;60618;40.084;32.908;2023-06-14T02:15:15;11.40;;;6.73;;
72584;SDS011;60618;40.084;32.908;2023-06-14T02:17:48;11.38;;;6.72;;
72584;SDS011;60618;40.084;32.908;2023-06-14T02:20:15;9.77;;;6.63;;
72584;SDS011;60618;40.084;32.908;2023-06-14T02:22:44;14.43;;;7.43;;
72584;SDS011;60618;40.084;32.908;2023-06-14T02:25:11;12.00;;;7.35;;
72584;SDS011;60618;40.084;32.908;2023-06-14T02:27:38;13.20;;;8.30;;
72584;SDS011;60618;40.084;32.908;2023-06-14T02:30:05;14.07;;;8.20;;
72584;SDS011;60618;40.084;32.908;2023-06-14T02:32:33;14.98;;;9.43;;
72584;SDS011;60618;40.084;32.908;2023-06-14T02:35:00;14.65;;;9.27;;
72584;SDS011;60618;40.084;32.908;2023-06-14T02:37:26;15.65;;;9.50;;
72584;SDS011;60618;40.084;32.908;2023-06-14T02:39:53;15.00;;;9.30;;
72584;SDS011;60618;40.084;32.908;2023-06-14T02:42:20;14.43;;;9.48;;
72584;SDS011;60618;40.084;32.908;2023-06-14T02:44:47;13.88;;;9.23;;
72584;SDS011;60618;40.084;32.908;2023-06-14T02:47:14;16.00;;;10.98;;
72584;SDS011;60618;40.084;32.908;2023-06-14T02:49:41;16.58;;;11.32;;
72584;SDS011;60618;40.084;32.908;2023-06-14T02:52:08;17.00;;;11.57;;
72584;SDS011;60618;40.084;32.908;2023-06-14T02:54:35;17.67;;;10.52;;
72584;SDS011;60618;40.084;32.908;2023-06-14T02:57:02;13.90;;;9.35;;
72584;SDS011;60618;40.084;32.908;2023-06-14T02:59:29;15.95;;;10.73;;
72584;SDS011;60618;40.084;32.908;2023-06-14T03:01:56;17.50;;;10.25;;
72584;SDS011;60618;40.084;32.908;2023-06-14T03:04:22;13.80;;;8.37;;
72584;SDS011;60618;40.084;32.908;2023-06-14T03:06:49;14.93;;;9.80;;
72584;SDS011;60618;40.084;32.908;2023-06-14T03:09:16;15.85;;;10.02;;
72584;SDS011;60618;40.084;32.908;2023-06-14T03:11:43;15.20;;;10.38;;
72584;SDS011;60618;40.084;32.908;2023-06-14T03:14:10;17.23;;;11.25;;
72584;SDS011;60618;40.084;32.908;2023-06-14T03:16:37;19.00;;;12.23;;
72584;SDS011;60618;40.084;32.908;2023-06-14T03:19:04;19.23;;;12.30;;
72584;SDS011;60618;40.084;32.908;2023-06-14T03:21:31;18.20;;;11.40;;
72584;SDS011;60618;40.084;32.908;2023-06-14T03:23:58;18.63;;;11.52;;
72584;SDS011;60618;40.084;32.908;2023-06-14T03:26:25;14.43;;;9.88;;
72584;SDS011;60618;40.084;32.908;2023-06-14T03:28:52;12.67;;;8.43;;
72584;SDS011;60618;40.084;32.908;2023-06-14T03:31:19;16.40;;;10.70;;
72584;SDS011;60618;40.084;32.908;2023-06-14T03:33:47;18.00;;;10.82;;
72584;SDS011;60618;40.084;32.908;2023-06-14T03:36:13;18.67;;;10.43;;
72584;SDS011;60618;40.084;32.908;2023-06-14T03:38:40;17.63;;;10.65;;
72584;SDS011;60618;40.084;32.908;2023-06-14T03:41:07;15.77;;;10.40;;
72584;SDS011;60618;40.084;32.908;2023-06-14T03:43:34;15.90;;;10.00;;
72584;SDS011;60618;40.084;32.908;2023-06-14T03:46:01;16.88;;;10.65;;
72584;SDS011;60618;40.084;32.908;2023-06-14T03:48:28;16.55;;;9.95;;
72584;SDS011;60618;40.084;32.908;2023-06-14T03:50:55;15.55;;;9.52;;
72584;SDS011;60618;40.084;32.908;2023-06-14T03:53:26;13.33;;;9.73;;
72584;SDS011;60618;40.084;32.908;2023-06-14T03:55:53;15.48;;;9.40;;
72584;SDS011;60618;40.084;32.908;2023-06-14T03:58:34;14.45;;;10.00;;
72584;SDS011;60618;40.084;32.908;2023-06-14T04:01:01;14.27;;;9.30;;
72584;SDS011;60618;40.084;32.908;2023-06-14T04:03:28;14.02;;;9.02;;
72584;SDS011;60618;40.084;32.908;2023-06-14T04:05:56;16.23;;;10.07;;
72584;SDS011;60618;40.084;32.908;2023-06-14T04:08:32;16.42;;;10.43;;
72584;SDS011;60618;40.084;32.908;2023-06-14T04:10:59;16.23;;;10.48;;
72584;SDS011;60618;40.084;32.908;2023-06-14T04:13:26;13.20;;;8.35;;
72584;SDS011;60618;40.084;32.908;2023-06-14T04:15:53;9.15;;;6.40;;
72584;SDS011;60618;40.084;32.908;2023-06-14T04:18:20;10.13;;;6.57;;
72584;SDS011;60618;40.084;32.908;2023-06-14T04:20:50;11.57;;;6.88;;
72584;SDS011;60618;40.084;32.908;2023-06-14T04:23:17;10.25;;;6.35;;
72584;SDS011;60618;40.084;32.908;2023-06-14T04:25:44;9.95;;;6.47;;
72584;SDS011;60618;40.084;32.908;2023-06-14T04:28:13;9.57;;;5.97;;
72584;SDS011;60618;40.084;32.908;2023-06-14T04:30:41;11.07;;;5.50;;
72584;SDS011;60618;40.084;32.908;2023-06-14T04:33:08;11.48;;;6.10;;
72584;SDS011;60618;40.084;32.908;2023-06-14T04:35:36;8.93;;;5.30;;
72584;SDS011;60618;40.084;32.908;2023-06-14T04:38:03;8.75;;;5.40;;
72584;SDS011;60618;40.084;32.908;2023-06-14T04:40:30;8.98;;;5.40;;
72584;SDS011;60618;40.084;32.908;2023-06-14T04:42:58;8.37;;;5.27;;
72584;SDS011;60618;40.084;32.908;2023-06-14T04:45:25;9.57;;;5.95;;
72584;SDS011;60618;40.084;32.908;2023-06-14T04:47:52;8.45;;;5.60;;
72584;SDS011;60618;40.084;32.908;2023-06-14T04:50:19;9.30;;;5.63;;
72584;SDS011;60618;40.084;32.908;2023-06-14T04:52:46;9.27;;;4.85;;
72584;SDS011;60618;40.084;32.908;2023-06-14T04:55:13;8.23;;;5.27;;
72584;SDS011;60618;40.084;32.908;2023-06-14T04:57:40;8.63;;;5.10;;
72584;SDS011;60618;40.084;32.908;2023-06-14T05:00:10;9.38;;;5.28;;
72584;SDS011;60618;40.084;32.908;2023-06-14T05:02:37;10.88;;;5.60;;
72584;SDS011;60618;40.084;32.908;2023-06-14T05:05:04;9.50;;;5.70;;
72584;SDS011;60618;40.084;32.908;2023-06-14T05:07:31;9.67;;;5.63;;
72584;SDS011;60618;40.084;32.908;2023-06-14T05:09:59;7.90;;;5.00;;
72584;SDS011;60618;40.084;32.908;2023-06-14T05:12:26;10.32;;;4.95;;
72584;SDS011;60618;40.084;32.908;2023-06-14T05:14:53;8.55;;;4.95;;
72584;SDS011;60618;40.084;32.908;2023-06-14T05:17:20;8.07;;;4.38;;
72584;SDS011;60618;40.084;32.908;2023-06-14T05:19:47;7.37;;;4.20;;
72584;SDS011;60618;40.084;32.908;2023-06-14T05:22:17;8.70;;;4.35;;
72584;SDS011;60618;40.084;32.908;2023-06-14T05:24:44;6.50;;;3.90;;
72584;SDS011;60618;40.084;32.908;2023-06-14T05:27:10;7.75;;;4.38;;
72584;SDS011;60618;40.084;32.908;2023-06-14T05:29:37;9.00;;;4.38;;
72584;SDS011;60618;40.084;32.908;2023-06-14T05:32:04;6.97;;;4.07;;
72584;SDS011;60618;40.084;32.908;2023-06-14T05:34:42;7.47;;;4.13;;
72584;SDS011;60618;40.084;32.908;2023-06-14T05:37:09;7.68;;;3.83;;
72584;SDS011;60618;40.084;32.908;2023-06-14T05:39:36;6.75;;;4.00;;
72584;SDS011;60618;40.084;32.908;2023-06-14T05:42:03;7.95;;;4.38;;
72584;SDS011;60618;40.084;32.908;2023-06-14T05:44:30;6.80;;;4.20;;
72584;SDS011;60618;40.084;32.908;2023-06-14T05:46:57;7.38;;;4.10;;
72584;SDS011;60618;40.084;32.908;2023-06-14T05:49:24;6.97;;;3.80;;
72584;SDS011;60618;40.084;32.908;2023-06-14T05:51:51;7.25;;;3.80;;
72584;SDS011;60618;40.084;32.908;2023-06-14T05:54:18;6.45;;;3.88;;
72584;SDS011;60618;40.084;32.908;2023-06-14T05:56:45;7.07;;;3.90;;
72584;SDS011;60618;40.084;32.908;2023-06-14T05:59:12;7.07;;;4.15;;
72584;SDS011;60618;40.084;32.908;2023-06-14T06:01:39;6.90;;;4.07;;
72584;SDS011;60618;40.084;32.908;2023-06-14T06:04:05;7.13;;;4.00;;
72584;SDS011;60618;40.084;32.908;2023-06-14T06:06:33;6.55;;;3.60;;
72584;SDS011;60618;40.084;32.908;2023-06-14T06:08:59;6.27;;;3.60;;
72584;SDS011;60618;40.084;32.908;2023-06-14T06:11:26;6.57;;;3.70;;
72584;SDS011;60618;40.084;32.908;2023-06-14T06:14:06;7.80;;;3.97;;
72584;SDS011;60618;40.084;32.908;2023-06-14T06:16:33;5.72;;;3.47;;
72584;SDS011;60618;40.084;32.908;2023-06-14T06:19:00;6.97;;;3.85;;
72584;SDS011;60618;40.084;32.908;2023-06-14T06:21:26;7.00;;;4.10;;
72584;SDS011;60618;40.084;32.908;2023-06-14T06:23:53;5.72;;;3.78;;
72584;SDS011;60618;40.084;32.908;2023-06-14T06:26:21;6.85;;;4.35;;
72584;SDS011;60618;40.084;32.908;2023-06-14T06:28:48;9.07;;;5.18;;
72584;SDS011;60618;40.084;32.908;2023-06-14T06:31:15;8.15;;;5.13;;
72584;SDS011;60618;40.084;32.908;2023-06-14T06:33:42;8.53;;;5.10;;
72584;SDS011;60618;40.084;32.908;2023-06-14T06:36:09;7.40;;;4.55;;
72584;SDS011;60618;40.084;32.908;2023-06-14T06:38:38;9.23;;;5.68;;
72584;SDS011;60618;40.084;32.908;2023-06-14T06:41:05;7.60;;;5.57;;
72584;SDS011;60618;40.084;32.908;2023-06-14T06:43:32;9.68;;;5.88;;
72584;SDS011;60618;40.084;32.908;2023-06-14T06:45:58;9.00;;;5.40;;
72584;SDS011;60618;40.084;32.908;2023-06-14T06:48:26;7.88;;;4.95;;
72584;SDS011;60618;40.084;32.908;2023-06-14T06:50:52;8.75;;;5.80;;
72584;SDS011;60618;40.084;32.908;2023-06-14T06:53:19;9.18;;;5.97;;
72584;SDS011;60618;40.084;32.908;2023-06-14T06:56:05;7.75;;;4.80;;
72584;SDS011;60618;40.084;32.908;2023-06-14T06:58:32;8.10;;;5.07;;
72584;SDS011;60618;40.084;32.908;2023-06-14T07:00:59;7.07;;;4.50;;
72584;SDS011;60618;40.084;32.908;2023-06-14T07:03:26;8.43;;;5.10;;
72584;SDS011;60618;40.084;32.908;2023-06-14T07:05:53;8.70;;;5.50;;
72584;SDS011;60618;40.084;32.908;2023-06-14T07:08:21;7.95;;;5.20;;
72584;SDS011;60618;40.084;32.908;2023-06-14T07:10:47;7.03;;;4.50;;
72584;SDS011;60618;40.084;32.908;2023-06-14T07:13:14;9.30;;;4.78;;
72584;SDS011;60618;40.084;32.908;2023-06-14T07:15:41;7.53;;;5.00;;
72584;SDS011;60618;40.084;32.908;2023-06-14T07:18:08;7.45;;;4.00;;
72584;SDS011;60618;40.084;32.908;2023-06-14T07:20:35;6.80;;;4.07;;
72584;SDS011;60618;40.084;32.908;2023-06-14T07:23:02;7.30;;;5.10;;
72584;SDS011;60618;40.084;32.908;2023-06-14T07:25:29;8.98;;;6.20;;
72584;SDS011;60618;40.084;32.908;2023-06-14T07:27:56;7.45;;;4.90;;
72584;SDS011;60618;40.084;32.908;2023-06-14T07:30:23;8.60;;;5.07;;
72584;SDS011;60618;40.084;32.908;2023-06-14T07:32:50;8.85;;;5.00;;
72584;SDS011;60618;40.084;32.908;2023-06-14T07:35:17;8.70;;;5.50;;
72584;SDS011;60618;40.084;32.908;2023-06-14T07:37:44;8.57;;;5.90;;
72584;SDS011;60618;40.084;32.908;2023-06-14T07:40:11;10.40;;;6.00;;
72584;SDS011;60618;40.084;32.908;2023-06-14T07:42:38;9.52;;;5.80;;
72584;SDS011;60618;40.084;32.908;2023-06-14T07:45:05;8.65;;;5.78;;
72584;SDS011;60618;40.084;32.908;2023-06-14T07:47:33;10.83;;;5.87;;
72584;SDS011;60618;40.084;32.908;2023-06-14T07:50:01;10.82;;;6.30;;
72584;SDS011;60618;40.084;32.908;2023-06-14T07:52:28;11.70;;;7.00;;
72584;SDS011;60618;40.084;32.908;2023-06-14T07:54:54;12.38;;;8.10;;
72584;SDS011;60618;40.084;32.908;2023-06-14T07:57:21;12.38;;;7.72;;
72584;SDS011;60618;40.084;32.908;2023-06-14T07:59:49;13.23;;;7.17;;
72584;SDS011;60618;40.084;32.908;2023-06-14T08:02:15;12.77;;;7.00;;
72584;SDS011;60618;40.084;32.908;2023-06-14T08:04:42;11.32;;;6.15;;
72584;SDS011;60618;40.084;32.908;2023-06-14T08:07:09;18.00;;;7.60;;
72584;SDS011;60618;40.084;32.908;2023-06-14T08:09:36;14.35;;;6.20;;
72584;SDS011;60618;40.084;32.908;2023-06-14T08:12:06;11.57;;;6.60;;
72584;SDS011;60618;40.084;32.908;2023-06-14T08:14:34;15.32;;;7.82;;
72584;SDS011;60618;40.084;32.908;2023-06-14T08:17:01;12.15;;;7.63;;
72584;SDS011;60618;40.084;32.908;2023-06-14T08:19:28;10.95;;;6.32;;
72584;SDS011;60618;40.084;32.908;2023-06-14T08:21:55;8.43;;;3.78;;
72584;SDS011;60618;40.084;32.908;2023-06-14T08:24:22;7.73;;;3.90;;
72584;SDS011;60618;40.084;32.908;2023-06-14T08:26:49;9.32;;;3.70;;
72584;SDS011;60618;40.084;32.908;2023-06-14T08:29:16;9.93;;;3.53;;
72584;SDS011;60618;40.084;32.908;2023-06-14T08:31:43;8.52;;;2.80;;
72584;SDS011;60618;40.084;32.908;2023-06-14T08:34:10;11.52;;;2.80;;
72584;SDS011;60618;40.084;32.908;2023-06-14T08:36:37;7.57;;;3.07;;
72584;SDS011;60618;40.084;32.908;2023-06-14T08:39:06;9.10;;;3.00;;
72584;SDS011;60618;40.084;32.908;2023-06-14T08:41:33;10.50;;;3.53;;
72584;SDS011;60618;40.084;32.908;2023-06-14T08:44:00;6.18;;;2.92;;
72584;SDS011;60618;40.084;32.908;2023-06-14T08:46:27;8.52;;;3.65;;
72584;SDS011;60618;40.084;32.908;2023-06-14T08:48:58;7.70;;;3.40;;
72584;SDS011;60618;40.084;32.908;2023-06-14T08:51:27;7.95;;;3.10;;
72584;SDS011;60618;40.084;32.908;2023-06-14T08:53:57;9.85;;;4.97;;
72584;SDS011;60618;40.084;32.908;2023-06-14T08:56:25;11.50;;;6.38;;
72584;SDS011;60618;40.084;32.908;2023-06-14T08:58:53;11.88;;;7.15;;
72584;SDS011;60618;40.084;32.908;2023-06-14T09:01:20;8.90;;;5.43;;
72584;SDS011;60618;40.084;32.908;2023-06-14T09:03:47;8.32;;;4.30;;
72584;SDS011;60618;40.084;32.908;2023-06-14T09:06:16;6.25;;;3.60;;
72584;SDS011;60618;40.084;32.908;2023-06-14T09:08:43;5.97;;;3.22;;
72584;SDS011;60618;40.084;32.908;2023-06-14T09:11:15;6.38;;;3.80;;
72584;SDS011;60618;40.084;32.908;2023-06-14T09:13:44;5.33;;;2.90;;
72584;SDS011;60618;40.084;32.908;2023-06-14T09:16:12;5.40;;;2.80;;
72584;SDS011;60618;40.084;32.908;2023-06-14T09:18:39;5.00;;;3.08;;
72584;SDS011;60618;40.084;32.908;2023-06-14T09:21:08;5.07;;;2.90;;
72584;SDS011;60618;40.084;32.908;2023-06-14T09:23:47;4.60;;;2.70;;
72584;SDS011;60618;40.084;32.908;2023-06-14T09:26:16;4.57;;;2.87;;
72584;SDS011;60618;40.084;32.908;2023-06-14T09:28:45;5.18;;;3.10;;
72584;SDS011;60618;40.084;32.908;2023-06-14T09:31:19;5.32;;;3.60;;
72584;SDS011;60618;40.084;32.908;2023-06-14T09:33:50;6.00;;;3.92;;
72584;SDS011;60618;40.084;32.908;2023-06-14T09:36:24;7.25;;;4.47;;
72584;SDS011;60618;40.084;32.908;2023-06-14T09:38:55;7.83;;;5.93;;
72584;SDS011;60618;40.084;32.908;2023-06-14T09:41:30;10.35;;;6.32;;
72584;SDS011;60618;40.084;32.908;2023-06-14T09:43:58;10.13;;;6.70;;
72584;SDS011;60618;40.084;32.908;2023-06-14T09:46:26;10.90;;;7.65;;
72584;SDS011;60618;40.084;32.908;2023-06-14T09:48:53;13.45;;;9.25;;
72584;SDS011;60618;40.084;32.908;2023-06-14T09:51:21;14.43;;;10.03;;
72584;SDS011;60618;40.084;32.908;2023-06-14T09:53:49;21.30;;;14.27;;
72584;SDS011;60618;40.084;32.908;2023-06-14T09:56:18;20.75;;;14.55;;
72584;SDS011;60618;40.084;32.908;2023-06-14T09:58:54;21.15;;;14.45;;
72584;SDS011;60618;40.084;32.908;2023-06-14T10:01:33;17.92;;;12.63;;
72584;SDS011;60618;40.084;32.908;2023-06-14T10:04:05;19.60;;;13.67;;
72584;SDS011;60618;40.084;32.908;2023-06-14T10:06:37;19.27;;;12.27;;
72584;SDS011;60618;40.084;32.908;2023-06-14T10:09:09;17.55;;;11.90;;
72584;SDS011;60618;40.084;32.908;2023-06-14T10:11:37;17.23;;;11.60;;
72584;SDS011;60618;40.084;32.908;2023-06-14T10:14:05;16.30;;;12.10;;
72584;SDS011;60618;40.084;32.908;2023-06-14T10:16:34;18.47;;;12.27;;
72584;SDS011;60618;40.084;32.908;2023-06-14T10:19:24;20.20;;;13.75;;
72584;SDS011;60618;40.084;32.908;2023-06-14T10:21:57;16.63;;;10.82;;
72584;SDS011;60618;40.084;32.908;2023-06-14T10:24:44;20.02;;;11.60;;
72584;SDS011;60618;40.084;32.908;2023-06-14T10:27:15;29.00;;;20.50;;
72584;SDS011;60618;40.084;32.908;2023-06-14T10:32:22;22.23;;;15.25;;
72584;SDS011;60618;40.084;32.908;2023-06-14T10:34:56;24.48;;;15.32;;
72584;SDS011;60618;40.084;32.908;2023-06-14T10:37:25;22.25;;;15.00;;
72584;SDS011;60618;40.084;32.908;2023-06-14T10:39:52;21.90;;;14.73;;
72584;SDS011;60618;40.084;32.908;2023-06-14T10:42:19;21.67;;;14.20;;
72584;SDS011;60618;40.084;32.908;2023-06-14T10:44:50;25.95;;;16.10;;
72584;SDS011;60618;40.084;32.908;2023-06-14T10:50:02;27.10;;;17.63;;
72584;SDS011;60618;40.084;32.908;2023-06-14T10:52:34;28.80;;;16.65;;
72584;SDS011;60618;40.084;32.908;2023-06-14T10:55:06;28.53;;;17.67;;
72584;SDS011;60618;40.084;32.908;2023-06-14T10:57:44;23.05;;;14.80;;
72584;SDS011;60618;40.084;32.908;2023-06-14T11:00:15;21.20;;;13.68;;
72584;SDS011;60618;40.084;32.908;2023-06-14T11:02:51;17.77;;;12.13;;
72584;SDS011;60618;40.084;32.908;2023-06-14T11:05:21;15.75;;;10.13;;
72584;SDS011;60618;40.084;32.908;2023-06-14T11:13:04;19.90;;;13.25;;
72584;SDS011;60618;40.084;32.908;2023-06-14T11:15:32;20.75;;;13.60;;
72584;SDS011;60618;40.084;32.908;2023-06-14T11:18:01;23.15;;;15.18;;
72584;SDS011;60618;40.084;32.908;2023-06-14T11:20:35;25.23;;;14.97;;
72584;SDS011;60618;40.084;32.908;2023-06-14T11:23:03;23.13;;;15.25;;
72584;SDS011;60618;40.084;32.908;2023-06-14T11:25:30;22.85;;;14.65;;
72584;SDS011;60618;40.084;32.908;2023-06-14T11:27:58;23.55;;;15.15;;
72584;SDS011;60618;40.084;32.908;2023-06-14T11:30:25;21.33;;;13.52;;
72584;SDS011;60618;40.084;32.908;2023-06-14T11:32:52;22.47;;;14.50;;
72584;SDS011;60618;40.084;32.908;2023-06-14T11:35:24;23.08;;;14.95;;
72584;SDS011;60618;40.084;32.908;2023-06-14T11:37:53;21.98;;;14.30;;
72584;SDS011;60618;40.084;32.908;2023-06-14T11:40:22;19.05;;;13.38;;
72584;SDS011;60618;40.084;32.908;2023-06-14T11:42:57;20.52;;;13.43;;
72584;SDS011;60618;40.084;32.908;2023-06-14T11:45:25;19.73;;;12.33;;
72584;SDS011;60618;40.084;32.908;2023-06-14T11:47:54;15.95;;;11.70;;
72584;SDS011;60618;40.084;32.908;2023-06-14T11:50:22;15.90;;;11.00;;
72584;SDS011;60618;40.084;32.908;2023-06-14T11:52:53;14.07;;;9.95;;
72584;SDS011;60618;40.084;32.908;2023-06-14T11:55:25;14.35;;;9.75;;
72584;SDS011;60618;40.084;32.908;2023-06-14T12:21:58;13.65;;;9.32;;
72584;SDS011;60618;40.084;32.908;2023-06-14T12:24:29;13.75;;;8.65;;
72584;SDS011;60618;40.084;32.908;2023-06-14T12:26:57;14.38;;;9.30;;
72584;SDS011;60618;40.084;32.908;2023-06-14T12:29:25;14.77;;;9.10;;
72584;SDS011;60618;40.084;32.908;2023-06-14T12:31:52;14.05;;;10.18;;
72584;SDS011;60618;40.084;32.908;2023-06-14T12:34:19;14.43;;;9.73;;
72584;SDS011;60618;40.084;32.908;2023-06-14T12:36:46;17.73;;;10.52;;
72584;SDS011;60618;40.084;32.908;2023-06-14T12:39:13;16.77;;;11.93;;
72584;SDS011;60618;40.084;32.908;2023-06-14T12:41:40;19.53;;;12.37;;
72584;SDS011;60618;40.084;32.908;2023-06-14T12:44:07;16.77;;;10.88;;
72584;SDS011;60618;40.084;32.908;2023-06-14T12:46:34;15.02;;;10.23;;
72584;SDS011;60618;40.084;32.908;2023-06-14T12:49:01;15.52;;;10.50;;
72584;SDS011;60618;40.084;32.908;2023-06-14T12:51:28;15.32;;;10.88;;
72584;SDS011;60618;40.084;32.908;2023-06-14T12:53:55;16.23;;;11.37;;
72584;SDS011;60618;40.084;32.908;2023-06-14T12:56:22;17.88;;;11.73;;
72584;SDS011;60618;40.084;32.908;2023-06-14T12:58:50;17.63;;;11.60;;
72584;SDS011;60618;40.084;32.908;2023-06-14T13:01:17;17.92;;;12.07;;
72584;SDS011;60618;40.084;32.908;2023-06-14T13:03:48;19.52;;;12.55;;
72584;SDS011;60618;40.084;32.908;2023-06-14T13:06:15;17.47;;;11.93;;
72584;SDS011;60618;40.084;32.908;2023-06-14T13:08:42;17.17;;;11.65;;
72584;SDS011;60618;40.084;32.908;2023-06-14T13:11:08;19.15;;;12.15;;
72584;SDS011;60618;40.084;32.908;2023-06-14T13:13:35;17.63;;;12.00;;
72584;SDS011;60618;40.084;32.908;2023-06-14T13:16:02;16.77;;;11.52;;
72584;SDS011;60618;40.084;32.908;2023-06-14T13:18:30;16.87;;;12.03;;
72584;SDS011;60618;40.084;32.908;2023-06-14T13:20:57;16.58;;;11.50;;
72584;SDS011;60618;40.084;32.908;2023-06-14T13:23:24;17.48;;;12.07;;
72584;SDS011;60618;40.084;32.908;2023-06-14T13:25:50;16.55;;;12.07;;
72584;SDS011;60618;40.084;32.908;2023-06-14T13:28:17;16.05;;;12.32;;
72584;SDS011;60618;40.084;32.908;2023-06-14T13:30:44;18.53;;;12.73;;
72584;SDS011;60618;40.084;32.908;2023-06-14T13:33:13;19.30;;;12.70;;
72584;SDS011;60618;40.084;32.908;2023-06-14T13:35:40;17.75;;;12.23;;
72584;SDS011;60618;40.084;32.908;2023-06-14T13:38:08;17.92;;;12.10;;
72584;SDS011;60618;40.084;32.908;2023-06-14T13:40:36;17.70;;;12.25;;
72584;SDS011;60618;40.084;32.908;2023-06-14T13:43:03;18.53;;;12.47;;
72584;SDS011;60618;40.084;32.908;2023-06-14T13:45:30;17.70;;;12.10;;
72584;SDS011;60618;40.084;32.908;2023-06-14T13:47:57;15.73;;;10.80;;
72584;SDS011;60618;40.084;32.908;2023-06-14T13:50:24;21.38;;;11.88;;
72584;SDS011;60618;40.084;32.908;2023-06-14T13:52:51;17.48;;;11.48;;
72584;SDS011;60618;40.084;32.908;2023-06-14T13:55:18;17.63;;;11.73;;
72584;SDS011;60618;40.084;32.908;2023-06-14T13:57:45;16.80;;;12.10;;
72584;SDS011;60618;40.084;32.908;2023-06-14T14:00:12;18.15;;;12.30;;
72584;SDS011;60618;40.084;32.908;2023-06-14T14:02:39;18.00;;;12.70;;
72584;SDS011;60618;40.084;32.908;2023-06-14T14:05:08;17.52;;;12.55;;
72584;SDS011;60618;40.084;32.908;2023-06-14T14:07:35;19.50;;;12.50;;
72584;SDS011;60618;40.084;32.908;2023-06-14T14:10:02;18.52;;;12.60;;
72584;SDS011;60618;40.084;32.908;2023-06-14T14:12:29;18.40;;;11.98;;
72584;SDS011;60618;40.084;32.908;2023-06-14T14:14:56;17.35;;;12.23;;
72584;SDS011;60618;40.084;32.908;2023-06-14T14:17:23;16.45;;;11.45;;
72584;SDS011;60618;40.084;32.908;2023-06-14T14:19:50;17.50;;;12.37;;
72584;SDS011;60618;40.084;32.908;2023-06-14T14:22:17;16.75;;;11.57;;
72584;SDS011;60618;40.084;32.908;2023-06-14T14:24:44;15.68;;;10.93;;
72584;SDS011;60618;40.084;32.908;2023-06-14T14:27:11;13.95;;;10.68;;
72584;SDS011;60618;40.084;32.908;2023-06-14T14:29:38;14.85;;;10.55;;
72584;SDS011;60618;40.084;32.908;2023-06-14T14:32:05;16.17;;;10.93;;
72584;SDS011;60618;40.084;32.908;2023-06-14T14:34:32;15.35;;;11.50;;
72584;SDS011;60618;40.084;32.908;2023-06-14T14:36:59;16.73;;;11.18;;
72584;SDS011;60618;40.084;32.908;2023-06-14T14:39:26;17.27;;;10.98;;
72584;SDS011;60618;40.084;32.908;2023-06-14T14:41:52;15.27;;;10.45;;
72584;SDS011;60618;40.084;32.908;2023-06-14T14:44:19;18.37;;;11.50;;
72584;SDS011;60618;40.084;32.908;2023-06-14T14:46:46;20.02;;;12.50;;
72584;SDS011;60618;40.084;32.908;2023-06-14T14:49:13;20.83;;;12.85;;
72584;SDS011;60618;40.084;32.908;2023-06-14T14:51:40;17.95;;;11.00;;
72584;SDS011;60618;40.084;32.908;2023-06-14T14:54:07;15.82;;;10.82;;
72584;SDS011;60618;40.084;32.908;2023-06-14T14:56:34;16.77;;;11.03;;
72584;SDS011;60618;40.084;32.908;2023-06-14T14:59:01;18.83;;;11.32;;
72584;SDS011;60618;40.084;32.908;2023-06-14T15:01:27;15.50;;;10.57;;
72584;SDS011;60618;40.084;32.908;2023-06-14T15:03:54;15.85;;;10.32;;
72584;SDS011;60618;40.084;32.908;2023-06-14T15:06:25;13.98;;;9.57;;